sensor_id;sensor_type;location;lat;lon;timestamp;P1;durP1;ratioP1;P2;durP2;ratioP2
13897;SDS011;7019;50.766;4.474;2022-09-09T00:01:17;3.60;;;1.77;;
13897;SDS011;7019;50.766;4.474;2022-09-09T00:03:57;4.67;;;1.10;;
13897;SDS011;7019;50.766;4.474;2022-09-09T00:06:30;3.43;;;1.63;;
13897;SDS011;7019;50.766;4.474;2022-09-09T00:09:01;2.33;;;1.30;;
13897;SDS011;7019;50.766;4.474;2022-09-09T00:11:36;4.23;;;1.37;;
13897;SDS011;7019;50.766;4.474;2022-09-09T00:14:11;4.30;;;1.33;;
13897;SDS011;7019;50.766;4.474;2022-09-09T00:16:54;3.87;;;1.43;;
13897;SDS011;7019;50.766;4.474;2022-09-09T00:19:28;2.37;;;1.50;;
13897;SDS011;7019;50.766;4.474;2022-09-09T00:22:12;8.30;;;1.63;;
13897;SDS011;7019;50.766;4.474;2022-09-09T00:24:48;4.03;;;1.67;;
13897;SDS011;7019;50.766;4.474;2022-09-09T00:27:23;7.43;;;1.93;;
13897;SDS011;7019;50.766;4.474;2022-09-09T00:29:57;5.07;;;1.90;;
13897;SDS011;7019;50.766;4.474;2022-09-09T00:32:30;2.43;;;1.27;;
13897;SDS011;7019;50.766;4.474;2022-09-09T00:34:59;5.97;;;1.70;;
13897;SDS011;7019;50.766;4.474;2022-09-09T00:37:30;3.43;;;1.90;;
13897;SDS011;7019;50.766;4.474;2022-09-09T00:40:05;4.07;;;1.57;;
13897;SDS011;7019;50.766;4.474;2022-09-09T00:42:44;7.30;;;1.73;;
13897;SDS011;7019;50.766;4.474;2022-09-09T00:45:17;5.43;;;1.93;;
13897;SDS011;7019;50.766;4.474;2022-09-09T00:48:00;7.67;;;1.87;;
13897;SDS011;7019;50.766;4.474;2022-09-09T00:50:41;4.60;;;1.90;;
13897;SDS011;7019;50.766;4.474;2022-09-09T00:53:24;6.37;;;1.80;;
13897;SDS011;7019;50.766;4.474;2022-09-09T00:56:05;3.80;;;1.70;;
13897;SDS011;7019;50.766;4.474;2022-09-09T00:58:37;3.93;;;1.50;;
13897;SDS011;7019;50.766;4.474;2022-09-09T01:01:05;7.80;;;1.80;;
13897;SDS011;7019;50.766;4.474;2022-09-09T01:03:40;4.17;;;1.90;;
13897;SDS011;7019;50.766;4.474;2022-09-09T01:06:14;7.83;;;1.97;;
13897;SDS011;7019;50.766;4.474;2022-09-09T01:08:52;6.90;;;1.93;;
13897;SDS011;7019;50.766;4.474;2022-09-09T01:11:37;5.97;;;1.60;;
13897;SDS011;7019;50.766;4.474;2022-09-09T01:14:18;8.40;;;3.03;;
13897;SDS011;7019;50.766;4.474;2022-09-09T01:16:53;4.30;;;1.50;;
13897;SDS011;7019;50.766;4.474;2022-09-09T01:19:33;3.87;;;1.70;;
13897;SDS011;7019;50.766;4.474;2022-09-09T01:22:09;5.80;;;1.70;;
13897;SDS011;7019;50.766;4.474;2022-09-09T01:24:42;7.30;;;1.87;;
13897;SDS011;7019;50.766;4.474;2022-09-09T01:27:21;7.80;;;2.07;;
13897;SDS011;7019;50.766;4.474;2022-09-09T01:29:50;5.47;;;1.77;;
13897;SDS011;7019;50.766;4.474;2022-09-09T01:35:06;3.97;;;1.93;;
13897;SDS011;7019;50.766;4.474;2022-09-09T01:37:36;7.00;;;1.87;;
13897;SDS011;7019;50.766;4.474;2022-09-09T01:40:06;4.37;;;2.27;;
13897;SDS011;7019;50.766;4.474;2022-09-09T01:42:38;11.07;;;2.30;;
13897;SDS011;7019;50.766;4.474;2022-09-09T01:45:07;7.03;;;1.90;;
13897;SDS011;7019;50.766;4.474;2022-09-09T01:47:37;8.33;;;2.20;;
13897;SDS011;7019;50.766;4.474;2022-09-09T01:50:04;7.53;;;2.17;;
13897;SDS011;7019;50.766;4.474;2022-09-09T01:52:34;5.07;;;1.90;;
13897;SDS011;7019;50.766;4.474;2022-09-09T01:55:02;6.37;;;2.60;;
13897;SDS011;7019;50.766;4.474;2022-09-09T01:57:31;6.87;;;2.10;;
13897;SDS011;7019;50.766;4.474;2022-09-09T02:00:08;6.00;;;1.83;;
13897;SDS011;7019;50.766;4.474;2022-09-09T02:02:38;4.03;;;2.43;;
13897;SDS011;7019;50.766;4.474;2022-09-09T02:05:20;8.90;;;2.67;;
13897;SDS011;7019;50.766;4.474;2022-09-09T02:07:58;5.83;;;1.80;;
13897;SDS011;7019;50.766;4.474;2022-09-09T02:10:36;11.03;;;2.60;;
13897;SDS011;7019;50.766;4.474;2022-09-09T02:13:09;5.80;;;2.47;;
13897;SDS011;7019;50.766;4.474;2022-09-09T02:15:42;6.53;;;2.03;;
13897;SDS011;7019;50.766;4.474;2022-09-09T02:18:13;5.87;;;2.63;;
13897;SDS011;7019;50.766;4.474;2022-09-09T02:20:46;5.27;;;2.30;;
13897;SDS011;7019;50.766;4.474;2022-09-09T02:23:16;7.03;;;2.10;;
13897;SDS011;7019;50.766;4.474;2022-09-09T02:25:47;6.03;;;2.03;;
13897;SDS011;7019;50.766;4.474;2022-09-09T02:28:18;31.03;;;3.60;;
13897;SDS011;7019;50.766;4.474;2022-09-09T02:30:52;3.77;;;1.67;;
13897;SDS011;7019;50.766;4.474;2022-09-09T02:33:20;8.93;;;2.43;;
13897;SDS011;7019;50.766;4.474;2022-09-09T02:35:52;6.50;;;2.17;;
13897;SDS011;7019;50.766;4.474;2022-09-09T02:38:26;8.67;;;2.27;;
13897;SDS011;7019;50.766;4.474;2022-09-09T02:41:00;11.00;;;2.57;;
13897;SDS011;7019;50.766;4.474;2022-09-09T02:43:30;5.73;;;1.93;;
13897;SDS011;7019;50.766;4.474;2022-09-09T02:46:02;9.37;;;2.60;;
13897;SDS011;7019;50.766;4.474;2022-09-09T02:48:36;4.67;;;2.27;;
13897;SDS011;7019;50.766;4.474;2022-09-09T02:51:14;7.30;;;1.87;;
13897;SDS011;7019;50.766;4.474;2022-09-09T02:53:50;6.27;;;2.37;;
13897;SDS011;7019;50.766;4.474;2022-09-09T02:56:27;2.50;;;1.83;;
13897;SDS011;7019;50.766;4.474;2022-09-09T02:58:59;4.40;;;1.57;;
13897;SDS011;7019;50.766;4.474;2022-09-09T03:01:27;7.13;;;2.93;;
13897;SDS011;7019;50.766;4.474;2022-09-09T03:03:54;6.67;;;1.90;;
13897;SDS011;7019;50.766;4.474;2022-09-09T03:06:21;5.07;;;2.10;;
13897;SDS011;7019;50.766;4.474;2022-09-09T03:08:50;7.93;;;2.40;;
13897;SDS011;7019;50.766;4.474;2022-09-09T03:11:19;8.13;;;2.13;;
13897;SDS011;7019;50.766;4.474;2022-09-09T03:13:48;4.33;;;1.73;;
13897;SDS011;7019;50.766;4.474;2022-09-09T03:16:22;11.50;;;2.53;;
13897;SDS011;7019;50.766;4.474;2022-09-09T03:18:53;8.17;;;2.13;;
13897;SDS011;7019;50.766;4.474;2022-09-09T03:21:20;12.40;;;3.03;;
13897;SDS011;7019;50.766;4.474;2022-09-09T03:23:50;13.63;;;3.47;;
13897;SDS011;7019;50.766;4.474;2022-09-09T03:26:20;12.30;;;2.80;;
13897;SDS011;7019;50.766;4.474;2022-09-09T03:28:48;8.63;;;3.03;;
13897;SDS011;7019;50.766;4.474;2022-09-09T03:31:16;11.60;;;3.40;;
13897;SDS011;7019;50.766;4.474;2022-09-09T03:33:44;9.00;;;2.80;;
13897;SDS011;7019;50.766;4.474;2022-09-09T03:36:21;6.47;;;2.57;;
13897;SDS011;7019;50.766;4.474;2022-09-09T03:38:48;10.13;;;3.27;;
13897;SDS011;7019;50.766;4.474;2022-09-09T03:41:18;14.00;;;3.37;;
13897;SDS011;7019;50.766;4.474;2022-09-09T03:43:49;10.90;;;2.97;;
13897;SDS011;7019;50.766;4.474;2022-09-09T03:46:22;9.07;;;3.30;;
13897;SDS011;7019;50.766;4.474;2022-09-09T03:48:51;10.47;;;3.20;;
13897;SDS011;7019;50.766;4.474;2022-09-09T03:51:20;16.63;;;4.20;;
13897;SDS011;7019;50.766;4.474;2022-09-09T03:53:48;9.83;;;2.97;;
13897;SDS011;7019;50.766;4.474;2022-09-09T03:56:17;10.50;;;2.90;;
13897;SDS011;7019;50.766;4.474;2022-09-09T03:58:46;9.83;;;3.17;;
13897;SDS011;7019;50.766;4.474;2022-09-09T04:01:20;10.70;;;3.47;;
13897;SDS011;7019;50.766;4.474;2022-09-09T04:03:47;13.00;;;3.00;;
13897;SDS011;7019;50.766;4.474;2022-09-09T04:06:17;10.40;;;2.80;;
13897;SDS011;7019;50.766;4.474;2022-09-09T04:08:47;12.17;;;3.10;;
13897;SDS011;7019;50.766;4.474;2022-09-09T04:11:17;15.50;;;3.67;;
13897;SDS011;7019;50.766;4.474;2022-09-09T04:13:45;8.50;;;2.60;;
13897;SDS011;7019;50.766;4.474;2022-09-09T04:16:12;6.50;;;2.63;;
13897;SDS011;7019;50.766;4.474;2022-09-09T04:18:39;6.00;;;2.17;;
13897;SDS011;7019;50.766;4.474;2022-09-09T04:21:10;6.23;;;2.33;;
13897;SDS011;7019;50.766;4.474;2022-09-09T04:23:40;11.50;;;3.13;;
13897;SDS011;7019;50.766;4.474;2022-09-09T04:26:16;13.90;;;3.23;;
13897;SDS011;7019;50.766;4.474;2022-09-09T04:28:45;11.53;;;3.33;;
13897;SDS011;7019;50.766;4.474;2022-09-09T04:31:14;12.67;;;2.83;;
13897;SDS011;7019;50.766;4.474;2022-09-09T04:33:47;9.30;;;2.50;;
13897;SDS011;7019;50.766;4.474;2022-09-09T04:36:21;13.17;;;2.83;;
13897;SDS011;7019;50.766;4.474;2022-09-09T04:38:50;14.47;;;4.53;;
13897;SDS011;7019;50.766;4.474;2022-09-09T04:41:30;12.87;;;2.90;;
13897;SDS011;7019;50.766;4.474;2022-09-09T04:43:57;15.67;;;3.50;;
13897;SDS011;7019;50.766;4.474;2022-09-09T04:46:26;15.30;;;3.07;;
13897;SDS011;7019;50.766;4.474;2022-09-09T04:49:05;10.87;;;3.93;;
13897;SDS011;7019;50.766;4.474;2022-09-09T04:51:32;12.50;;;3.63;;
13897;SDS011;7019;50.766;4.474;2022-09-09T04:53:59;13.03;;;3.40;;
13897;SDS011;7019;50.766;4.474;2022-09-09T04:56:36;15.67;;;4.60;;
13897;SDS011;7019;50.766;4.474;2022-09-09T04:59:08;13.63;;;3.77;;
13897;SDS011;7019;50.766;4.474;2022-09-09T05:01:38;14.30;;;3.57;;
13897;SDS011;7019;50.766;4.474;2022-09-09T05:04:15;14.33;;;3.70;;
13897;SDS011;7019;50.766;4.474;2022-09-09T05:06:44;13.63;;;3.30;;
13897;SDS011;7019;50.766;4.474;2022-09-09T05:09:15;15.97;;;3.57;;
13897;SDS011;7019;50.766;4.474;2022-09-09T05:11:46;16.10;;;4.57;;
13897;SDS011;7019;50.766;4.474;2022-09-09T05:14:17;15.47;;;4.00;;
13897;SDS011;7019;50.766;4.474;2022-09-09T05:16:46;13.67;;;4.07;;
13897;SDS011;7019;50.766;4.474;2022-09-09T05:19:16;15.70;;;4.20;;
13897;SDS011;7019;50.766;4.474;2022-09-09T05:21:45;13.67;;;4.83;;
13897;SDS011;7019;50.766;4.474;2022-09-09T05:24:15;15.53;;;3.97;;
13897;SDS011;7019;50.766;4.474;2022-09-09T05:27:00;9.67;;;3.70;;
13897;SDS011;7019;50.766;4.474;2022-09-09T05:29:31;11.03;;;3.93;;
13897;SDS011;7019;50.766;4.474;2022-09-09T05:32:04;13.10;;;3.87;;
13897;SDS011;7019;50.766;4.474;2022-09-09T05:35:28;14.90;;;3.40;;
13897;SDS011;7019;50.766;4.474;2022-09-09T05:38:32;12.33;;;3.57;;
13897;SDS011;7019;50.766;4.474;2022-09-09T05:40:53;8.17;;;2.77;;
13897;SDS011;7019;50.766;4.474;2022-09-09T05:43:23;9.47;;;3.00;;
13897;SDS011;7019;50.766;4.474;2022-09-09T05:46:01;14.70;;;3.97;;
13897;SDS011;7019;50.766;4.474;2022-09-09T05:48:38;15.00;;;3.23;;
13897;SDS011;7019;50.766;4.474;2022-09-09T05:51:12;11.47;;;3.37;;
13897;SDS011;7019;50.766;4.474;2022-09-09T05:53:43;11.20;;;2.90;;
13897;SDS011;7019;50.766;4.474;2022-09-09T05:56:13;9.93;;;2.77;;
13897;SDS011;7019;50.766;4.474;2022-09-09T05:58:44;11.57;;;3.57;;
13897;SDS011;7019;50.766;4.474;2022-09-09T06:01:15;10.93;;;3.10;;
13897;SDS011;7019;50.766;4.474;2022-09-09T06:03:44;9.43;;;2.87;;
13897;SDS011;7019;50.766;4.474;2022-09-09T06:06:15;11.70;;;2.87;;
13897;SDS011;7019;50.766;4.474;2022-09-09T06:08:48;9.20;;;2.93;;
13897;SDS011;7019;50.766;4.474;2022-09-09T06:11:20;14.83;;;2.93;;
13897;SDS011;7019;50.766;4.474;2022-09-09T06:13:50;9.77;;;3.37;;
13897;SDS011;7019;50.766;4.474;2022-09-09T06:16:19;10.37;;;3.00;;
13897;SDS011;7019;50.766;4.474;2022-09-09T06:18:48;14.13;;;3.17;;
13897;SDS011;7019;50.766;4.474;2022-09-09T06:21:16;11.20;;;2.77;;
13897;SDS011;7019;50.766;4.474;2022-09-09T06:23:44;11.23;;;2.50;;
13897;SDS011;7019;50.766;4.474;2022-09-09T06:26:13;11.57;;;2.40;;
13897;SDS011;7019;50.766;4.474;2022-09-09T06:28:42;12.13;;;3.17;;
13897;SDS011;7019;50.766;4.474;2022-09-09T06:31:12;11.27;;;2.67;;
13897;SDS011;7019;50.766;4.474;2022-09-09T06:33:42;9.13;;;3.03;;
13897;SDS011;7019;50.766;4.474;2022-09-09T06:36:11;9.77;;;2.63;;
13897;SDS011;7019;50.766;4.474;2022-09-09T06:38:40;14.03;;;2.83;;
13897;SDS011;7019;50.766;4.474;2022-09-09T06:41:07;9.73;;;2.60;;
13897;SDS011;7019;50.766;4.474;2022-09-09T06:43:35;7.80;;;2.60;;
13897;SDS011;7019;50.766;4.474;2022-09-09T06:46:03;15.27;;;4.63;;
13897;SDS011;7019;50.766;4.474;2022-09-09T06:48:34;9.97;;;2.77;;
13897;SDS011;7019;50.766;4.474;2022-09-09T06:51:02;9.73;;;2.80;;
13897;SDS011;7019;50.766;4.474;2022-09-09T06:53:30;10.83;;;2.77;;
13897;SDS011;7019;50.766;4.474;2022-09-09T06:55:59;10.93;;;2.37;;
13897;SDS011;7019;50.766;4.474;2022-09-09T06:58:27;9.93;;;2.80;;
13897;SDS011;7019;50.766;4.474;2022-09-09T07:01:01;12.47;;;2.70;;
13897;SDS011;7019;50.766;4.474;2022-09-09T07:03:29;10.70;;;3.27;;
13897;SDS011;7019;50.766;4.474;2022-09-09T07:05:57;11.67;;;2.40;;
13897;SDS011;7019;50.766;4.474;2022-09-09T07:08:25;14.90;;;2.87;;
13897;SDS011;7019;50.766;4.474;2022-09-09T07:10:52;14.57;;;3.73;;
13897;SDS011;7019;50.766;4.474;2022-09-09T07:13:23;11.00;;;2.60;;
13897;SDS011;7019;50.766;4.474;2022-09-09T07:15:50;11.23;;;2.30;;
13897;SDS011;7019;50.766;4.474;2022-09-09T07:18:17;9.30;;;2.10;;
13897;SDS011;7019;50.766;4.474;2022-09-09T07:20:52;9.87;;;2.70;;
13897;SDS011;7019;50.766;4.474;2022-09-09T07:23:20;6.90;;;2.03;;
13897;SDS011;7019;50.766;4.474;2022-09-09T07:25:47;11.17;;;2.20;;
13897;SDS011;7019;50.766;4.474;2022-09-09T07:28:15;5.93;;;2.17;;
13897;SDS011;7019;50.766;4.474;2022-09-09T07:30:42;11.97;;;2.30;;
13897;SDS011;7019;50.766;4.474;2022-09-09T07:33:09;8.70;;;2.40;;
13897;SDS011;7019;50.766;4.474;2022-09-09T07:35:36;9.20;;;2.57;;
13897;SDS011;7019;50.766;4.474;2022-09-09T07:38:03;13.53;;;2.00;;
13897;SDS011;7019;50.766;4.474;2022-09-09T07:40:33;11.83;;;2.60;;
13897;SDS011;7019;50.766;4.474;2022-09-09T07:43:01;14.00;;;3.07;;
13897;SDS011;7019;50.766;4.474;2022-09-09T07:45:28;14.43;;;2.67;;
13897;SDS011;7019;50.766;4.474;2022-09-09T07:47:56;12.17;;;2.60;;
13897;SDS011;7019;50.766;4.474;2022-09-09T07:50:23;14.87;;;3.57;;
13897;SDS011;7019;50.766;4.474;2022-09-09T07:52:50;12.50;;;3.20;;
13897;SDS011;7019;50.766;4.474;2022-09-09T07:55:18;11.10;;;2.67;;
13897;SDS011;7019;50.766;4.474;2022-09-09T07:57:47;7.70;;;2.27;;
13897;SDS011;7019;50.766;4.474;2022-09-09T08:00:14;9.07;;;2.03;;
13897;SDS011;7019;50.766;4.474;2022-09-09T08:02:41;8.57;;;2.57;;
13897;SDS011;7019;50.766;4.474;2022-09-09T08:05:08;6.40;;;2.00;;
13897;SDS011;7019;50.766;4.474;2022-09-09T08:07:35;10.70;;;2.33;;
13897;SDS011;7019;50.766;4.474;2022-09-09T08:10:02;7.63;;;2.33;;
13897;SDS011;7019;50.766;4.474;2022-09-09T08:12:31;5.73;;;1.70;;
13897;SDS011;7019;50.766;4.474;2022-09-09T08:14:59;7.27;;;1.93;;
13897;SDS011;7019;50.766;4.474;2022-09-09T08:17:26;10.10;;;2.50;;
13897;SDS011;7019;50.766;4.474;2022-09-09T08:19:53;11.27;;;3.00;;
13897;SDS011;7019;50.766;4.474;2022-09-09T08:22:20;7.13;;;2.03;;
13897;SDS011;7019;50.766;4.474;2022-09-09T08:24:47;8.70;;;1.97;;
13897;SDS011;7019;50.766;4.474;2022-09-09T08:27:14;7.90;;;2.27;;
13897;SDS011;7019;50.766;4.474;2022-09-09T08:29:41;9.00;;;2.63;;
13897;SDS011;7019;50.766;4.474;2022-09-09T08:32:09;10.93;;;2.90;;
13897;SDS011;7019;50.766;4.474;2022-09-09T08:34:36;7.47;;;2.07;;
13897;SDS011;7019;50.766;4.474;2022-09-09T08:37:03;6.37;;;1.93;;
13897;SDS011;7019;50.766;4.474;2022-09-09T08:39:30;8.47;;;2.53;;
13897;SDS011;7019;50.766;4.474;2022-09-09T08:45:14;8.47;;;2.37;;
13897;SDS011;7019;50.766;4.474;2022-09-09T08:47:59;10.23;;;2.57;;
13897;SDS011;7019;50.766;4.474;2022-09-09T08:50:35;11.33;;;2.83;;
13897;SDS011;7019;50.766;4.474;2022-09-09T08:53:05;9.30;;;2.50;;
13897;SDS011;7019;50.766;4.474;2022-09-09T08:55:40;7.67;;;2.50;;
13897;SDS011;7019;50.766;4.474;2022-09-09T08:58:12;12.17;;;3.07;;
13897;SDS011;7019;50.766;4.474;2022-09-09T09:00:52;12.07;;;1.90;;
13897;SDS011;7019;50.766;4.474;2022-09-09T09:03:32;8.57;;;2.33;;
13897;SDS011;7019;50.766;4.474;2022-09-09T09:06:08;9.43;;;2.70;;
13897;SDS011;7019;50.766;4.474;2022-09-09T09:08:43;10.10;;;2.60;;
13897;SDS011;7019;50.766;4.474;2022-09-09T09:11:16;7.67;;;3.30;;
13897;SDS011;7019;50.766;4.474;2022-09-09T09:13:44;9.37;;;2.70;;
13897;SDS011;7019;50.766;4.474;2022-09-09T09:16:19;6.83;;;2.67;;
13897;SDS011;7019;50.766;4.474;2022-09-09T09:18:52;12.40;;;2.93;;
13897;SDS011;7019;50.766;4.474;2022-09-09T09:21:20;6.00;;;2.40;;
13897;SDS011;7019;50.766;4.474;2022-09-09T09:23:55;12.60;;;2.73;;
13897;SDS011;7019;50.766;4.474;2022-09-09T09:26:25;9.40;;;3.17;;
13897;SDS011;7019;50.766;4.474;2022-09-09T09:28:56;9.23;;;2.70;;
13897;SDS011;7019;50.766;4.474;2022-09-09T09:31:28;8.10;;;2.83;;
13897;SDS011;7019;50.766;4.474;2022-09-09T09:33:56;10.10;;;2.67;;
13897;SDS011;7019;50.766;4.474;2022-09-09T09:36:24;9.23;;;2.97;;
13897;SDS011;7019;50.766;4.474;2022-09-09T09:39:00;15.70;;;3.60;;
13897;SDS011;7019;50.766;4.474;2022-09-09T09:41:34;9.73;;;3.20;;
13897;SDS011;7019;50.766;4.474;2022-09-09T09:44:03;8.83;;;2.83;;
13897;SDS011;7019;50.766;4.474;2022-09-09T09:46:32;12.10;;;3.30;;
13897;SDS011;7019;50.766;4.474;2022-09-09T09:49:01;11.53;;;3.67;;
13897;SDS011;7019;50.766;4.474;2022-09-09T09:51:30;12.73;;;2.73;;
13897;SDS011;7019;50.766;4.474;2022-09-09T09:54:07;11.60;;;3.40;;
13897;SDS011;7019;50.766;4.474;2022-09-09T09:56:40;13.83;;;2.97;;
13897;SDS011;7019;50.766;4.474;2022-09-09T09:59:18;9.47;;;3.23;;
13897;SDS011;7019;50.766;4.474;2022-09-09T10:01:47;10.70;;;3.00;;
13897;SDS011;7019;50.766;4.474;2022-09-09T10:04:15;9.87;;;2.90;;
13897;SDS011;7019;50.766;4.474;2022-09-09T10:06:46;12.83;;;2.90;;
13897;SDS011;7019;50.766;4.474;2022-09-09T10:09:22;7.57;;;3.03;;
13897;SDS011;7019;50.766;4.474;2022-09-09T10:11:54;10.77;;;3.17;;
13897;SDS011;7019;50.766;4.474;2022-09-09T10:14:30;8.40;;;3.03;;
13897;SDS011;7019;50.766;4.474;2022-09-09T10:17:07;7.77;;;3.03;;
13897;SDS011;7019;50.766;4.474;2022-09-09T10:19:45;11.43;;;2.77;;
13897;SDS011;7019;50.766;4.474;2022-09-09T10:22:28;7.63;;;3.43;;
13897;SDS011;7019;50.766;4.474;2022-09-09T10:25:03;9.77;;;3.20;;
13897;SDS011;7019;50.766;4.474;2022-09-09T10:27:55;6.73;;;2.93;;
13897;SDS011;7019;50.766;4.474;2022-09-09T10:30:38;11.10;;;3.63;;
13897;SDS011;7019;50.766;4.474;2022-09-09T10:33:16;9.80;;;3.47;;
13897;SDS011;7019;50.766;4.474;2022-09-09T10:35:56;12.67;;;4.03;;
13897;SDS011;7019;50.766;4.474;2022-09-09T10:38:37;10.90;;;3.47;;
13897;SDS011;7019;50.766;4.474;2022-09-09T10:41:14;9.10;;;3.43;;
13897;SDS011;7019;50.766;4.474;2022-09-09T10:46:44;11.20;;;3.87;;
13897;SDS011;7019;50.766;4.474;2022-09-09T10:49:27;11.33;;;4.23;;
13897;SDS011;7019;50.766;4.474;2022-09-09T10:52:12;16.23;;;3.80;;
13897;SDS011;7019;50.766;4.474;2022-09-09T10:54:46;9.73;;;3.70;;
13897;SDS011;7019;50.766;4.474;2022-09-09T10:57:25;10.70;;;3.63;;
13897;SDS011;7019;50.766;4.474;2022-09-09T10:59:58;11.87;;;3.53;;
13897;SDS011;7019;50.766;4.474;2022-09-09T11:02:30;13.57;;;3.57;;
13897;SDS011;7019;50.766;4.474;2022-09-09T11:04:59;10.63;;;3.23;;
13897;SDS011;7019;50.766;4.474;2022-09-09T11:07:33;15.37;;;4.00;;
13897;SDS011;7019;50.766;4.474;2022-09-09T11:10:06;8.27;;;3.17;;
13897;SDS011;7019;50.766;4.474;2022-09-09T11:12:43;8.80;;;2.77;;
13897;SDS011;7019;50.766;4.474;2022-09-09T11:15:16;7.97;;;2.67;;
13897;SDS011;7019;50.766;4.474;2022-09-09T11:17:49;15.63;;;3.00;;
13897;SDS011;7019;50.766;4.474;2022-09-09T11:20:19;9.03;;;3.23;;
13897;SDS011;7019;50.766;4.474;2022-09-09T11:22:48;8.73;;;3.00;;
13897;SDS011;7019;50.766;4.474;2022-09-09T11:25:21;7.53;;;2.70;;
13897;SDS011;7019;50.766;4.474;2022-09-09T11:28:04;7.07;;;2.40;;
13897;SDS011;7019;50.766;4.474;2022-09-09T11:30:49;6.93;;;2.37;;
13897;SDS011;7019;50.766;4.474;2022-09-09T11:36:34;5.97;;;2.20;;
13897;SDS011;7019;50.766;4.474;2022-09-09T11:39:32;10.53;;;2.20;;
13897;SDS011;7019;50.766;4.474;2022-09-09T11:42:20;9.17;;;2.47;;
13897;SDS011;7019;50.766;4.474;2022-09-09T11:44:49;7.77;;;2.47;;
13897;SDS011;7019;50.766;4.474;2022-09-09T11:47:19;6.27;;;2.57;;
13897;SDS011;7019;50.766;4.474;2022-09-09T11:49:54;4.23;;;1.67;;
13897;SDS011;7019;50.766;4.474;2022-09-09T11:52:22;6.93;;;2.00;;
13897;SDS011;7019;50.766;4.474;2022-09-09T11:54:54;6.17;;;1.90;;
13897;SDS011;7019;50.766;4.474;2022-09-09T11:57:24;5.23;;;1.73;;
13897;SDS011;7019;50.766;4.474;2022-09-09T11:59:53;5.87;;;1.60;;
13897;SDS011;7019;50.766;4.474;2022-09-09T12:02:22;6.77;;;2.00;;
13897;SDS011;7019;50.766;4.474;2022-09-09T12:04:54;9.57;;;2.20;;
13897;SDS011;7019;50.766;4.474;2022-09-09T12:07:26;8.63;;;2.10;;
13897;SDS011;7019;50.766;4.474;2022-09-09T12:09:59;7.37;;;1.87;;
13897;SDS011;7019;50.766;4.474;2022-09-09T12:12:30;5.63;;;1.60;;
13897;SDS011;7019;50.766;4.474;2022-09-09T12:17:49;3.23;;;1.30;;
13897;SDS011;7019;50.766;4.474;2022-09-09T12:20:19;4.67;;;1.80;;
13897;SDS011;7019;50.766;4.474;2022-09-09T12:22:51;5.37;;;1.70;;
13897;SDS011;7019;50.766;4.474;2022-09-09T12:25:35;4.83;;;1.47;;
13897;SDS011;7019;50.766;4.474;2022-09-09T12:28:15;5.80;;;1.70;;
13897;SDS011;7019;50.766;4.474;2022-09-09T12:30:47;5.97;;;1.57;;
13897;SDS011;7019;50.766;4.474;2022-09-09T12:33:22;4.30;;;1.63;;
13897;SDS011;7019;50.766;4.474;2022-09-09T12:35:51;4.17;;;2.13;;
13897;SDS011;7019;50.766;4.474;2022-09-09T12:38:22;7.07;;;1.93;;
13897;SDS011;7019;50.766;4.474;2022-09-09T12:40:57;7.07;;;1.60;;
13897;SDS011;7019;50.766;4.474;2022-09-09T12:43:26;5.50;;;1.87;;
13897;SDS011;7019;50.766;4.474;2022-09-09T12:45:55;5.43;;;1.77;;
13897;SDS011;7019;50.766;4.474;2022-09-09T12:48:27;3.40;;;1.30;;
13897;SDS011;7019;50.766;4.474;2022-09-09T12:50:58;5.03;;;1.57;;
13897;SDS011;7019;50.766;4.474;2022-09-09T12:53:28;7.73;;;1.70;;
13897;SDS011;7019;50.766;4.474;2022-09-09T12:56:00;5.40;;;1.53;;
13897;SDS011;7019;50.766;4.474;2022-09-09T12:58:31;5.03;;;1.30;;
13897;SDS011;7019;50.766;4.474;2022-09-09T13:01:00;4.13;;;1.13;;
13897;SDS011;7019;50.766;4.474;2022-09-09T13:03:30;3.40;;;1.27;;
13897;SDS011;7019;50.766;4.474;2022-09-09T13:05:59;4.27;;;1.40;;
13897;SDS011;7019;50.766;4.474;2022-09-09T13:08:39;5.53;;;1.80;;
13897;SDS011;7019;50.766;4.474;2022-09-09T13:11:09;7.83;;;1.80;;
13897;SDS011;7019;50.766;4.474;2022-09-09T13:13:41;5.00;;;1.40;;
13897;SDS011;7019;50.766;4.474;2022-09-09T13:16:18;4.23;;;1.50;;
13897;SDS011;7019;50.766;4.474;2022-09-09T13:18:48;4.93;;;1.57;;
13897;SDS011;7019;50.766;4.474;2022-09-09T13:21:15;3.10;;;0.90;;
13897;SDS011;7019;50.766;4.474;2022-09-09T13:23:47;4.47;;;1.20;;
13897;SDS011;7019;50.766;4.474;2022-09-09T13:26:22;6.10;;;1.20;;
13897;SDS011;7019;50.766;4.474;2022-09-09T13:28:51;5.33;;;1.23;;
13897;SDS011;7019;50.766;4.474;2022-09-09T13:31:20;3.23;;;0.90;;
13897;SDS011;7019;50.766;4.474;2022-09-09T13:33:48;3.97;;;1.30;;
13897;SDS011;7019;50.766;4.474;2022-09-09T13:36:15;4.30;;;1.93;;
13897;SDS011;7019;50.766;4.474;2022-09-09T13:38:52;3.17;;;1.17;;
13897;SDS011;7019;50.766;4.474;2022-09-09T13:41:22;1.90;;;1.00;;
13897;SDS011;7019;50.766;4.474;2022-09-09T13:43:51;1.93;;;0.60;;
13897;SDS011;7019;50.766;4.474;2022-09-09T13:46:23;3.80;;;1.03;;
13897;SDS011;7019;50.766;4.474;2022-09-09T13:48:55;3.83;;;1.20;;
13897;SDS011;7019;50.766;4.474;2022-09-09T13:51:27;5.53;;;1.10;;
13897;SDS011;7019;50.766;4.474;2022-09-09T13:53:59;3.90;;;0.87;;
13897;SDS011;7019;50.766;4.474;2022-09-09T13:56:28;2.57;;;0.93;;
13897;SDS011;7019;50.766;4.474;2022-09-09T13:58:55;2.70;;;0.80;;
13897;SDS011;7019;50.766;4.474;2022-09-09T14:01:23;3.03;;;1.00;;
13897;SDS011;7019;50.766;4.474;2022-09-09T14:03:50;4.90;;;1.30;;
13897;SDS011;7019;50.766;4.474;2022-09-09T14:06:18;4.53;;;1.10;;
13897;SDS011;7019;50.766;4.474;2022-09-09T14:08:46;3.67;;;1.00;;
13897;SDS011;7019;50.766;4.474;2022-09-09T14:11:14;3.47;;;1.10;;
13897;SDS011;7019;50.766;4.474;2022-09-09T14:13:42;6.67;;;1.03;;
13897;SDS011;7019;50.766;4.474;2022-09-09T14:16:09;2.77;;;1.27;;
13897;SDS011;7019;50.766;4.474;2022-09-09T14:18:36;3.30;;;1.60;;
13897;SDS011;7019;50.766;4.474;2022-09-09T14:21:04;3.07;;;1.40;;
13897;SDS011;7019;50.766;4.474;2022-09-09T14:23:31;4.70;;;1.40;;
13897;SDS011;7019;50.766;4.474;2022-09-09T14:25:58;5.33;;;1.40;;
13897;SDS011;7019;50.766;4.474;2022-09-09T14:28:25;5.33;;;1.60;;
13897;SDS011;7019;50.766;4.474;2022-09-09T14:30:54;3.77;;;1.30;;
13897;SDS011;7019;50.766;4.474;2022-09-09T14:33:25;4.60;;;1.23;;
13897;SDS011;7019;50.766;4.474;2022-09-09T14:35:55;5.93;;;1.60;;
13897;SDS011;7019;50.766;4.474;2022-09-09T14:38:22;4.87;;;1.27;;
13897;SDS011;7019;50.766;4.474;2022-09-09T14:40:49;2.73;;;1.30;;
13897;SDS011;7019;50.766;4.474;2022-09-09T14:43:16;4.20;;;1.40;;
13897;SDS011;7019;50.766;4.474;2022-09-09T14:45:43;3.57;;;1.20;;
13897;SDS011;7019;50.766;4.474;2022-09-09T14:48:11;5.10;;;1.40;;
13897;SDS011;7019;50.766;4.474;2022-09-09T14:50:39;3.57;;;1.00;;
13897;SDS011;7019;50.766;4.474;2022-09-09T14:53:06;2.53;;;1.00;;
13897;SDS011;7019;50.766;4.474;2022-09-09T14:55:34;4.87;;;1.27;;
13897;SDS011;7019;50.766;4.474;2022-09-09T14:58:01;4.03;;;1.00;;
13897;SDS011;7019;50.766;4.474;2022-09-09T15:00:28;4.20;;;1.30;;
13897;SDS011;7019;50.766;4.474;2022-09-09T15:02:55;2.60;;;1.13;;
13897;SDS011;7019;50.766;4.474;2022-09-09T15:05:23;6.80;;;1.10;;
13897;SDS011;7019;50.766;4.474;2022-09-09T15:07:50;5.83;;;1.40;;
13897;SDS011;7019;50.766;4.474;2022-09-09T15:10:17;4.87;;;1.40;;
13897;SDS011;7019;50.766;4.474;2022-09-09T15:12:44;5.50;;;1.23;;
13897;SDS011;7019;50.766;4.474;2022-09-09T15:15:11;4.57;;;1.40;;
13897;SDS011;7019;50.766;4.474;2022-09-09T15:17:38;3.27;;;1.20;;
13897;SDS011;7019;50.766;4.474;2022-09-09T15:20:06;3.53;;;1.10;;
13897;SDS011;7019;50.766;4.474;2022-09-09T15:22:35;5.13;;;1.20;;
13897;SDS011;7019;50.766;4.474;2022-09-09T15:25:03;4.23;;;1.20;;
13897;SDS011;7019;50.766;4.474;2022-09-09T15:27:31;3.23;;;1.00;;
13897;SDS011;7019;50.766;4.474;2022-09-09T15:29:59;2.37;;;0.90;;
13897;SDS011;7019;50.766;4.474;2022-09-09T15:32:26;4.17;;;1.07;;
13897;SDS011;7019;50.766;4.474;2022-09-09T15:34:54;3.53;;;0.90;;
13897;SDS011;7019;50.766;4.474;2022-09-09T15:37:20;4.30;;;0.93;;
13897;SDS011;7019;50.766;4.474;2022-09-09T15:39:49;4.57;;;1.10;;